Time;durP1;ratioP1;P1;durP2;ratioP2;P2;SDS_P1;SDS_P2;PMS_P1;PMS_P2;Temp;Humidity;BMP_temperature;BMP_pressure;BME280_temperature;BME280_humidity;BME280_pressure;Samples;Min_cycle;Max_cycle;Signal;HPM_P1;HPM_P2
2022/07/14 00:01:45;;;;;;;2.33;0.90;;;;;;;;;;4996628;28;20101;-76
2022/07/14 00:04:12;;;;;;;1.60;0.80;;;;;;;;;;4995993;28;20097;-79
2022/07/14 00:06:38;;;;;;;3.55;1.00;;;;;;;;;;4994934;28;20475;-79
2022/07/14 00:09:05;;;;;;;3.45;1.05;;;;;;;;;;4994629;28;20061;-80
2022/07/14 00:11:31;;;;;;;2.35;0.80;;;;;;;;;;4995848;28;20074;-79
2022/07/14 00:13:58;;;;;;;2.15;0.80;;;;;;;;;;4994945;28;20184;-79
2022/07/14 00:16:25;;;;;;;2.20;0.98;;;;;;;;;;4994641;28;20460;-79
2022/07/14 00:18:51;;;;;;;1.83;0.80;;;;;;;;;;4994897;28;20049;-80
2022/07/14 00:21:18;;;;;;;1.90;0.90;;;;;;;;;;4995604;28;20022;-80
2022/07/14 00:23:45;;;;;;;1.73;0.98;;;;;;;;;;4994887;28;20028;-79
2022/07/14 00:26:11;;;;;;;1.98;1.00;;;;;;;;;;4995225;28;20096;-79
2022/07/14 00:28:38;;;;;;;2.30;0.75;;;;;;;;;;4995137;28;20030;-79
2022/07/14 00:31:08;;;;;;;1.55;0.70;;;;;;;;;;4994994;28;20026;-79
2022/07/14 00:33:35;;;;;;;2.65;1.13;;;;;;;;;;4995477;28;20026;-79
2022/07/14 00:36:01;;;;;;;4.32;0.90;;;;;;;;;;4995199;28;20026;-79
2022/07/14 00:38:27;;;;;;;1.83;0.80;;;;;;;;;;4994755;28;20037;-79
2022/07/14 00:40:53;;;;;;;2.03;1.00;;;;;;;;;;4995060;28;20026;-80
2022/07/14 00:43:20;;;;;;;1.98;1.00;;;;;;;;;;4994893;28;20026;-79
2022/07/14 00:45:46;;;;;;;2.65;1.08;;;;;;;;;;4994455;28;20387;-79
2022/07/14 00:48:12;;;;;;;1.30;0.90;;;;;;;;;;4994041;28;20026;-79
2022/07/14 00:50:41;;;;;;;2.95;0.90;;;;;;;;;;4996115;28;20033;-79
2022/07/14 00:53:08;;;;;;;1.65;0.80;;;;;;;;;;4994109;28;20026;-79
2022/07/14 00:55:34;;;;;;;1.30;0.70;;;;;;;;;;4994473;28;20141;-79
2022/07/14 00:58:00;;;;;;;1.88;0.80;;;;;;;;;;4994990;28;20031;-79
2022/07/14 01:00:27;;;;;;;3.20;0.90;;;;;;;;;;4994232;28;20034;-79
2022/07/14 01:02:53;;;;;;;1.23;0.77;;;;;;;;;;4994514;28;20078;-80
2022/07/14 01:05:19;;;;;;;4.60;1.10;;;;;;;;;;4994327;28;20049;-79
2022/07/14 01:07:47;;;;;;;3.53;0.90;;;;;;;;;;4993659;28;20386;-79
2022/07/14 01:10:13;;;;;;;2.38;1.02;;;;;;;;;;4994057;28;20398;-79
2022/07/14 01:12:47;;;;;;;2.45;1.00;;;;;;;;;;4994141;28;20026;-79
2022/07/14 01:15:18;;;;;;;1.45;0.88;;;;;;;;;;4993949;28;20399;-79
2022/07/14 01:17:49;;;;;;;2.78;0.95;;;;;;;;;;4994057;28;20051;-79
2022/07/14 01:20:16;;;;;;;3.33;1.10;;;;;;;;;;4992955;28;20034;-79
2022/07/14 01:22:43;;;;;;;2.83;1.10;;;;;;;;;;4994725;28;20034;-79
2022/07/14 01:25:10;;;;;;;3.28;1.05;;;;;;;;;;4995173;28;20030;-79
2022/07/14 01:27:36;;;;;;;3.10;0.98;;;;;;;;;;4994015;28;20065;-79
2022/07/14 01:30:03;;;;;;;3.38;1.02;;;;;;;;;;4994136;28;20054;-79
2022/07/14 01:32:29;;;;;;;3.45;1.10;;;;;;;;;;4993136;28;20046;-79
2022/07/14 01:34:55;;;;;;;3.72;1.00;;;;;;;;;;4993245;28;20073;-79
2022/07/14 01:37:22;;;;;;;1.77;0.82;;;;;;;;;;4993556;28;20034;-79
2022/07/14 01:39:48;;;;;;;3.60;1.00;;;;;;;;;;4993725;28;20463;-79
2022/07/14 01:42:14;;;;;;;4.28;1.02;;;;;;;;;;4994629;28;20486;-79
2022/07/14 01:44:41;;;;;;;1.48;0.90;;;;;;;;;;4993281;28;20034;-79
2022/07/14 01:47:07;;;;;;;1.88;0.93;;;;;;;;;;4994982;28;20387;-79
2022/07/14 01:49:34;;;;;;;2.00;0.80;;;;;;;;;;4994525;28;20030;-79
2022/07/14 01:52:00;;;;;;;3.40;1.02;;;;;;;;;;4993387;28;20076;-80
2022/07/14 01:54:26;;;;;;;2.05;0.93;;;;;;;;;;4994506;28;20037;-80
2022/07/14 01:56:52;;;;;;;3.05;0.90;;;;;;;;;;4993003;28;20387;-79
2022/07/14 01:59:18;;;;;;;3.40;0.70;;;;;;;;;;4994500;28;20026;-79
2022/07/14 02:01:46;;;;;;;1.75;0.90;;;;;;;;;;4993129;28;20126;-80
2022/07/14 02:04:14;;;;;;;4.68;1.10;;;;;;;;;;4992920;28;20023;-80
2022/07/14 02:06:51;;;;;;;1.38;0.80;;;;;;;;;;4993014;28;20026;-79
2022/07/14 02:09:17;;;;;;;1.83;0.95;;;;;;;;;;4992671;28;20426;-79
2022/07/14 02:14:31;;;;;;;2.25;0.95;;;;;;;;;;4994250;28;20049;-79
2022/07/14 02:16:57;;;;;;;4.82;1.23;;;;;;;;;;4994152;28;20026;-79
2022/07/14 02:19:24;;;;;;;3.38;1.10;;;;;;;;;;4992869;28;20030;-80
2022/07/14 02:21:51;;;;;;;1.30;0.80;;;;;;;;;;4994115;28;20019;-79
2022/07/14 02:24:18;;;;;;;2.17;0.88;;;;;;;;;;4992919;28;20065;-79
2022/07/14 02:26:45;;;;;;;1.30;0.80;;;;;;;;;;4992690;28;20077;-79
2022/07/14 02:29:11;;;;;;;4.13;0.90;;;;;;;;;;4994140;28;20105;-79
2022/07/14 02:31:37;;;;;;;2.78;1.10;;;;;;;;;;4993353;28;20022;-75
2022/07/14 02:34:04;;;;;;;1.95;1.00;;;;;;;;;;4998875;28;20042;-79
2022/07/14 02:36:30;;;;;;;1.30;0.70;;;;;;;;;;4997233;28;20031;-79
2022/07/14 02:38:57;;;;;;;1.95;0.90;;;;;;;;;;4997301;28;20030;-80
2022/07/14 02:41:23;;;;;;;3.38;0.90;;;;;;;;;;4998621;28;20054;-79
2022/07/14 02:43:50;;;;;;;2.50;0.70;;;;;;;;;;4997274;28;20050;-80
2022/07/14 02:46:16;;;;;;;1.90;0.88;;;;;;;;;;4998280;28;20542;-80
2022/07/14 02:48:42;;;;;;;3.83;0.90;;;;;;;;;;4998082;28;20030;-80
2022/07/14 02:51:09;;;;;;;1.50;0.80;;;;;;;;;;4996572;28;20034;-79
2022/07/14 02:53:36;;;;;;;2.30;0.82;;;;;;;;;;4997785;28;20041;-79
2022/07/14 02:56:03;;;;;;;3.10;1.00;;;;;;;;;;4996405;28;20049;-79
2022/07/14 02:58:30;;;;;;;2.80;0.80;;;;;;;;;;4996409;28;20034;-80
2022/07/14 03:00:56;;;;;;;1.80;0.75;;;;;;;;;;4997323;28;20022;-79
2022/07/14 03:03:23;;;;;;;2.75;0.73;;;;;;;;;;4997710;28;20045;-79
2022/07/14 03:05:49;;;;;;;5.68;0.90;;;;;;;;;;4997762;28;20255;-79
2022/07/14 03:08:15;;;;;;;2.67;0.80;;;;;;;;;;4996517;28;20050;-79
2022/07/14 03:10:42;;;;;;;1.50;0.80;;;;;;;;;;4996756;28;20030;-79
2022/07/14 03:13:08;;;;;;;2.35;0.85;;;;;;;;;;4997106;28;20483;-79
2022/07/14 03:15:34;;;;;;;2.30;0.95;;;;;;;;;;4998069;28;20097;-79
2022/07/14 03:18:01;;;;;;;1.70;0.95;;;;;;;;;;4996181;28;20052;-80
2022/07/14 03:20:28;;;;;;;1.70;0.60;;;;;;;;;;4996118;28;20387;-80
2022/07/14 03:22:54;;;;;;;1.60;0.80;;;;;;;;;;4996120;28;20475;-79
2022/07/14 03:25:20;;;;;;;1.90;0.77;;;;;;;;;;4997842;28;20022;-79
2022/07/14 03:27:47;;;;;;;2.35;0.80;;;;;;;;;;4995772;28;20042;-79
2022/07/14 03:30:14;;;;;;;1.50;0.60;;;;;;;;;;4996209;28;20022;-78
2022/07/14 03:32:40;;;;;;;2.30;1.00;;;;;;;;;;4996527;28;20081;-79
2022/07/14 03:35:07;;;;;;;2.33;0.80;;;;;;;;;;4995809;28;20477;-80
2022/07/14 03:37:36;;;;;;;1.63;0.70;;;;;;;;;;4995818;28;20019;-79
2022/07/14 03:40:04;;;;;;;3.35;0.90;;;;;;;;;;4996427;28;20069;-80
2022/07/14 03:42:30;;;;;;;3.03;0.77;;;;;;;;;;4996084;28;20030;-79
2022/07/14 03:44:56;;;;;;;2.03;0.73;;;;;;;;;;4994575;28;20038;-80
2022/07/14 03:47:23;;;;;;;2.08;0.90;;;;;;;;;;4995560;28;20085;-79
2022/07/14 03:49:49;;;;;;;2.50;0.95;;;;;;;;;;4997442;28;20061;-81
2022/07/14 03:52:15;;;;;;;1.40;0.80;;;;;;;;;;4996359;28;20022;-77
2022/07/14 03:54:45;;;;;;;1.98;0.90;;;;;;;;;;4995519;28;20529;-79
2022/07/14 03:57:12;;;;;;;1.17;0.65;;;;;;;;;;4995515;28;20493;-78
2022/07/14 03:59:40;;;;;;;3.63;0.70;;;;;;;;;;4995270;28;20438;-78
2022/07/14 04:02:10;;;;;;;1.52;0.80;;;;;;;;;;4995750;28;20045;-78
2022/07/14 04:04:36;;;;;;;2.80;0.80;;;;;;;;;;4997030;28;20054;-79
2022/07/14 04:07:03;;;;;;;2.63;0.88;;;;;;;;;;4995685;28;20026;-79
2022/07/14 04:09:30;;;;;;;3.03;0.90;;;;;;;;;;4995207;28;20058;-79
2022/07/14 04:11:56;;;;;;;1.55;0.90;;;;;;;;;;4995844;28;20030;-82
2022/07/14 04:14:22;;;;;;;2.47;0.70;;;;;;;;;;4994979;28;20116;-79
2022/07/14 04:16:48;;;;;;;3.05;0.70;;;;;;;;;;4997352;28;20018;-79
2022/07/14 04:19:15;;;;;;;1.40;0.70;;;;;;;;;;4994648;28;20391;-79
2022/07/14 04:21:41;;;;;;;1.33;0.60;;;;;;;;;;4994765;28;20026;-78
2022/07/14 04:24:07;;;;;;;1.73;0.65;;;;;;;;;;4995239;28;20030;-79
2022/07/14 04:26:33;;;;;;;1.00;0.60;;;;;;;;;;4995027;28;20023;-79
2022/07/14 04:29:00;;;;;;;2.60;0.70;;;;;;;;;;4994510;28;20483;-77
2022/07/14 04:31:26;;;;;;;2.17;0.70;;;;;;;;;;4995074;28;20478;-79
2022/07/14 04:33:52;;;;;;;3.47;1.20;;;;;;;;;;4994743;28;20122;-79
2022/07/14 04:36:19;;;;;;;1.42;0.60;;;;;;;;;;4994508;28;20030;-79
2022/07/14 04:38:45;;;;;;;1.77;0.70;;;;;;;;;;4995447;28;20033;-77
2022/07/14 04:41:12;;;;;;;1.67;0.60;;;;;;;;;;4994750;28;20085;-78
2022/07/14 04:43:38;;;;;;;1.80;0.80;;;;;;;;;;4994758;28;20026;-79
2022/07/14 04:46:05;;;;;;;4.63;0.93;;;;;;;;;;5005948;28;20037;-78
2022/07/14 04:52:01;;;;;;;3.10;0.90;;;;;;;;;;5014497;28;20056;-78
2022/07/14 04:54:02;;;;;;;3.67;0.70;;;;;;;;;;5015382;28;20471;-79
2022/07/14 04:56:28;;;;;;;1.58;0.70;;;;;;;;;;5015459;28;20398;-78
2022/07/14 04:58:54;;;;;;;1.50;0.77;;;;;;;;;;5013046;28;20033;-78
2022/07/14 05:01:20;;;;;;;2.03;0.90;;;;;;;;;;5014148;28;20022;-78
2022/07/14 05:03:47;;;;;;;2.95;0.85;;;;;;;;;;5013942;28;20034;-78
2022/07/14 05:06:13;;;;;;;3.40;1.00;;;;;;;;;;5013454;28;20022;-78
2022/07/14 05:08:39;;;;;;;3.65;0.85;;;;;;;;;;5013376;28;20103;-78
2022/07/14 05:11:05;;;;;;;5.50;0.90;;;;;;;;;;5015615;28;20479;-81
2022/07/14 05:13:32;;;;;;;4.68;1.00;;;;;;;;;;5013568;28;20066;-74
2022/07/14 05:15:58;;;;;;;6.00;1.02;;;;;;;;;;5013942;28;20044;-78
2022/07/14 05:18:24;;;;;;;3.70;1.00;;;;;;;;;;5008292;28;20637;-75
2022/07/14 05:20:50;;;;;;;6.13;0.80;;;;;;;;;;4995242;28;20030;-75
2022/07/14 05:23:16;;;;;;;4.93;0.95;;;;;;;;;;4993693;28;20109;-76
2022/07/14 05:25:42;;;;;;;8.20;1.55;;;;;;;;;;4995073;28;20057;-75
2022/07/14 05:28:08;;;;;;;5.00;1.00;;;;;;;;;;4996405;28;20070;-78
2022/07/14 05:30:34;;;;;;;2.33;0.80;;;;;;;;;;5000382;28;20031;-74
2022/07/14 05:33:01;;;;;;;4.97;0.88;;;;;;;;;;4998267;28;20033;-75
2022/07/14 05:35:28;;;;;;;4.18;0.90;;;;;;;;;;4999720;28;20026;-74
2022/07/14 05:37:54;;;;;;;5.25;1.10;;;;;;;;;;5001273;28;20037;-75
2022/07/14 05:40:20;;;;;;;3.33;1.00;;;;;;;;;;4993376;28;20546;-76
2022/07/14 05:42:46;;;;;;;1.88;0.82;;;;;;;;;;4993768;28;20026;-77
2022/07/14 05:45:12;;;;;;;2.15;0.80;;;;;;;;;;4994971;28;20027;-76
2022/07/14 05:47:41;;;;;;;2.55;0.80;;;;;;;;;;5002940;28;20025;-79
2022/07/14 05:50:07;;;;;;;1.40;0.82;;;;;;;;;;4998797;28;20022;-81
2022/07/14 05:52:33;;;;;;;1.90;0.65;;;;;;;;;;4998669;28;20030;-78
2022/07/14 05:55:00;;;;;;;1.33;0.70;;;;;;;;;;4994303;28;20057;-79
2022/07/14 05:57:27;;;;;;;1.70;0.70;;;;;;;;;;4993519;28;20030;-84
2022/07/14 05:59:53;;;;;;;3.90;0.80;;;;;;;;;;4993343;28;20033;-78
2022/07/14 06:02:19;;;;;;;1.80;0.70;;;;;;;;;;4993456;28;20037;-81
2022/07/14 06:04:45;;;;;;;1.73;0.68;;;;;;;;;;4992835;28;20030;-78
2022/07/14 06:07:11;;;;;;;2.03;0.77;;;;;;;;;;4992716;28;20023;-81
2022/07/14 06:09:40;;;;;;;1.85;0.70;;;;;;;;;;4993393;28;20411;-88
2022/07/14 06:12:07;;;;;;;1.70;0.80;;;;;;;;;;4992980;28;20027;-82
2022/07/14 06:14:33;;;;;;;2.15;0.70;;;;;;;;;;4994593;28;20038;-76
2022/07/14 06:17:00;;;;;;;3.53;0.70;;;;;;;;;;4992849;28;20030;-77
2022/07/14 06:19:26;;;;;;;1.30;0.50;;;;;;;;;;4993427;28;20023;-76
2022/07/14 06:21:52;;;;;;;3.17;0.73;;;;;;;;;;4993043;28;20035;-76
2022/07/14 06:24:18;;;;;;;2.13;0.60;;;;;;;;;;4993207;28;20031;-77
2022/07/14 06:26:44;;;;;;;2.00;0.55;;;;;;;;;;4994474;28;20027;-76
2022/07/14 06:29:11;;;;;;;3.10;0.95;;;;;;;;;;5000271;28;20011;-78
2022/07/14 06:31:38;;;;;;;2.67;0.70;;;;;;;;;;4993821;28;20034;-76
2022/07/14 06:34:04;;;;;;;2.83;0.50;;;;;;;;;;4993400;28;20066;-78
2022/07/14 06:36:31;;;;;;;1.55;0.57;;;;;;;;;;4994527;28;20026;-78
2022/07/14 06:38:58;;;;;;;5.03;0.50;;;;;;;;;;4992818;28;20033;-77
2022/07/14 06:41:24;;;;;;;3.70;0.60;;;;;;;;;;4992709;28;20030;-77
2022/07/14 06:43:50;;;;;;;4.78;0.60;;;;;;;;;;4992400;28;20049;-78
2022/07/14 06:46:17;;;;;;;4.22;0.50;;;;;;;;;;4992845;28;20034;-79
2022/07/14 06:48:44;;;;;;;2.20;0.43;;;;;;;;;;4998510;28;20034;-82
2022/07/14 06:51:10;;;;;;;2.83;0.50;;;;;;;;;;5012607;28;20038;-76
2022/07/14 06:53:37;;;;;;;3.05;0.70;;;;;;;;;;5000140;28;20027;-80
2022/07/14 06:56:03;;;;;;;1.70;0.50;;;;;;;;;;4992312;28;20039;-76
2022/07/14 06:58:30;;;;;;;2.70;0.55;;;;;;;;;;4993703;28;20558;-78
2022/07/14 07:00:56;;;;;;;4.03;0.40;;;;;;;;;;4993884;28;20018;-76
2022/07/14 07:03:22;;;;;;;2.75;0.57;;;;;;;;;;4996229;28;20026;-79
2022/07/14 07:08:33;;;;;;;0.98;0.40;;;;;;;;;;5009770;28;20049;-78
2022/07/14 07:10:59;;;;;;;2.58;0.40;;;;;;;;;;5001302;28;20473;-77
2022/07/14 07:13:29;;;;;;;3.72;0.75;;;;;;;;;;5007704;28;20033;-81
2022/07/14 07:15:55;;;;;;;2.78;0.52;;;;;;;;;;5007030;28;20034;-77
2022/07/14 07:18:22;;;;;;;5.38;0.60;;;;;;;;;;5013036;28;20480;-77
2022/07/14 07:20:48;;;;;;;3.42;0.60;;;;;;;;;;5015618;28;20041;-78
2022/07/14 07:23:14;;;;;;;2.95;0.60;;;;;;;;;;5015474;28;20025;-78
2022/07/14 07:25:40;;;;;;;2.45;0.57;;;;;;;;;;5015518;28;20038;-82
2022/07/14 07:28:06;;;;;;;3.15;0.40;;;;;;;;;;5015742;28;20057;-82
2022/07/14 07:30:33;;;;;;;1.95;0.40;;;;;;;;;;5015522;28;20478;-78
2022/07/14 07:32:59;;;;;;;0.95;0.38;;;;;;;;;;5006770;28;20049;-77
2022/07/14 07:35:25;;;;;;;1.85;0.50;;;;;;;;;;4996964;28;20113;-78
2022/07/14 07:37:51;;;;;;;2.45;0.43;;;;;;;;;;4996830;28;20435;-89
2022/07/14 07:40:23;;;;;;;1.27;0.45;;;;;;;;;;4996035;28;20033;-77
2022/07/14 07:42:49;;;;;;;1.83;0.50;;;;;;;;;;4995648;28;20471;-77
2022/07/14 07:45:15;;;;;;;2.58;0.50;;;;;;;;;;4996872;28;20030;-78
2022/07/14 07:47:42;;;;;;;1.00;0.40;;;;;;;;;;4996965;28;20027;-78
2022/07/14 07:50:10;;;;;;;3.35;0.40;;;;;;;;;;4997829;28;20038;-77
2022/07/14 07:52:36;;;;;;;2.13;0.50;;;;;;;;;;4997494;28;20109;-77
2022/07/14 07:55:08;;;;;;;1.98;0.40;;;;;;;;;;4995216;28;20074;-82
2022/07/14 07:57:33;;;;;;;;;;;;;;;;;;4997066;28;20022;-75
2022/07/14 08:00:00;;;;;;;1.10;0.30;;;;;;;;;;4996466;28;19916;-77
2022/07/14 08:02:26;;;;;;;2.78;0.40;;;;;;;;;;4997014;28;20033;-77
2022/07/14 08:04:52;;;;;;;1.75;0.60;;;;;;;;;;4995816;28;20110;-76
2022/07/14 08:07:19;;;;;;;6.88;0.57;;;;;;;;;;4996596;28;20030;-78
2022/07/14 08:09:45;;;;;;;2.58;0.40;;;;;;;;;;4996049;28;20081;-77
2022/07/14 08:12:12;;;;;;;2.80;0.43;;;;;;;;;;4996596;28;20026;-86
2022/07/14 08:14:51;;;;;;;2.70;0.50;;;;;;;;;;4995003;28;20042;-78
2022/07/14 08:17:18;;;;;;;4.28;0.40;;;;;;;;;;4995469;28;20022;-81
2022/07/14 08:19:44;;;;;;;6.47;0.52;;;;;;;;;;4995247;28;20027;-77
2022/07/14 08:22:11;;;;;;;1.00;0.40;;;;;;;;;;4995942;28;20066;-77
2022/07/14 08:24:37;;;;;;;9.73;0.68;;;;;;;;;;4996275;28;20026;-83
2022/07/14 08:27:03;;;;;;;16.55;4.68;;;;;;;;;;4995537;28;20090;-74
2022/07/14 08:29:29;;;;;;;199.55;33.38;;;;;;;;;;4992096;28;20056;-76
2022/07/14 08:31:55;;;;;;;7.28;3.05;;;;;;;;;;4993094;28;20026;-78
2022/07/14 08:34:22;;;;;;;93.97;65.35;;;;;;;;;;4992797;28;20398;-78
2022/07/14 08:36:48;;;;;;;10.32;6.50;;;;;;;;;;4992770;28;20026;-76
2022/07/14 08:39:15;;;;;;;9.50;1.50;;;;;;;;;;5027021;28;20439;-76
2022/07/14 08:41:41;;;;;;;2.78;0.50;;;;;;;;;;4994686;28;20026;-77
2022/07/14 08:44:08;;;;;;;1.00;0.30;;;;;;;;;;4994593;28;20034;-74
2022/07/14 08:46:36;;;;;;;1.52;0.40;;;;;;;;;;4995895;28;20030;-75
2022/07/14 08:49:04;;;;;;;3.53;0.50;;;;;;;;;;4994627;28;20479;-75
2022/07/14 08:51:32;;;;;;;1.80;0.65;;;;;;;;;;4994298;28;20053;-78
2022/07/14 08:53:58;;;;;;;2.38;0.50;;;;;;;;;;4993976;28;20034;-76
2022/07/14 08:56:25;;;;;;;0.77;0.40;;;;;;;;;;4994088;28;20050;-84
2022/07/14 08:58:51;;;;;;;4.25;0.50;;;;;;;;;;4994201;28;20038;-75
2022/07/14 09:01:18;;;;;;;1.70;0.50;;;;;;;;;;4994138;28;20372;-75
2022/07/14 09:03:44;;;;;;;2.65;0.60;;;;;;;;;;4993390;28;20038;-75
2022/07/14 09:06:10;;;;;;;3.40;0.57;;;;;;;;;;4994617;28;20019;-78
2022/07/14 09:08:56;;;;;;;9.90;0.60;;;;;;;;;;4995147;28;20050;-83
2022/07/14 09:11:22;;;;;;;2.70;0.50;;;;;;;;;;4994289;28;20023;-75
2022/07/14 09:13:49;;;;;;;1.88;0.60;;;;;;;;;;4993835;28;20475;-85
2022/07/14 09:16:20;;;;;;;0.50;0.25;;;;;;;;;;4993702;28;20402;-76
2022/07/14 09:19:01;;;;;;;2.95;0.73;;;;;;;;;;4993951;28;20061;-76
2022/07/14 09:21:27;;;;;;;4.95;0.50;;;;;;;;;;4993642;28;20034;-76
2022/07/14 09:23:55;;;;;;;2.30;0.40;;;;;;;;;;4995201;28;20038;-85
2022/07/14 09:26:22;;;;;;;2.28;0.20;;;;;;;;;;4993689;28;20026;-76
2022/07/14 09:28:49;;;;;;;1.10;0.30;;;;;;;;;;4995521;28;20030;-77
2022/07/14 09:31:25;;;;;;;2.45;0.38;;;;;;;;;;4994676;28;20018;-76
2022/07/14 09:33:55;;;;;;;3.42;0.43;;;;;;;;;;4993367;28;20566;-82
2022/07/14 09:36:26;;;;;;;3.13;0.50;;;;;;;;;;4994825;28;20553;-75
2022/07/14 09:38:52;;;;;;;1.50;0.40;;;;;;;;;;4994706;28;20246;-77
2022/07/14 09:41:20;;;;;;;1.02;0.32;;;;;;;;;;4993457;28;20026;-77
2022/07/14 09:44:19;;;;;;;2.45;0.40;;;;;;;;;;4993673;28;20037;-80
2022/07/14 09:46:50;;;;;;;1.98;0.30;;;;;;;;;;4982354;28;20442;-76
2022/07/14 09:49:17;;;;;;;6.13;0.45;;;;;;;;;;4994749;28;20029;-76
2022/07/14 09:52:03;;;;;;;3.47;0.30;;;;;;;;;;4994121;28;20037;-76
2022/07/14 09:54:46;;;;;;;0.75;0.30;;;;;;;;;;4993643;28;20034;-78
2022/07/14 09:57:12;;;;;;;1.13;0.30;;;;;;;;;;4994095;28;20022;-77
2022/07/14 09:59:44;;;;;;;1.02;0.20;;;;;;;;;;4993100;28;20053;-77
2022/07/14 10:02:14;;;;;;;2.63;0.30;;;;;;;;;;4993005;28;20080;-77
2022/07/14 10:04:40;;;;;;;1.40;0.40;;;;;;;;;;4993908;28;20118;-76
2022/07/14 10:07:07;;;;;;;1.52;0.30;;;;;;;;;;4993356;28;20459;-79
2022/07/14 10:09:37;;;;;;;3.78;0.40;;;;;;;;;;4992963;28;20109;-78
2022/07/14 10:12:03;;;;;;;;;;;;;;;;;;4993601;28;20026;-76
2022/07/14 10:14:30;;;;;;;1.02;0.30;;;;;;;;;;4994384;28;19952;-82
2022/07/14 10:16:58;;;;;;;0.63;0.20;;;;;;;;;;4992907;28;20030;-81
2022/07/14 10:19:25;;;;;;;2.70;0.55;;;;;;;;;;4992839;28;20042;-78
2022/07/14 10:21:55;;;;;;;2.85;0.30;;;;;;;;;;4993987;28;20026;-83
2022/07/14 10:24:23;;;;;;;0.80;0.20;;;;;;;;;;4992881;28;20505;-76
2022/07/14 10:26:49;;;;;;;2.75;0.30;;;;;;;;;;4992739;28;20027;-76
2022/07/14 10:29:15;;;;;;;1.98;0.20;;;;;;;;;;4992997;28;20142;-76
2022/07/14 10:32:00;;;;;;;1.70;0.17;;;;;;;;;;4992703;28;20176;-77
2022/07/14 10:34:34;;;;;;;1.92;0.20;;;;;;;;;;4992722;28;20042;-83
2022/07/14 10:37:19;;;;;;;1.83;0.30;;;;;;;;;;4993507;28;20026;-78
2022/07/14 10:39:50;;;;;;;4.85;0.85;;;;;;;;;;4992721;28;20483;-82
2022/07/14 10:42:28;;;;;;;3.08;0.40;;;;;;;;;;4992738;28;20035;-76
2022/07/14 10:44:55;;;;;;;3.67;0.40;;;;;;;;;;4992776;28;20084;-77
2022/07/14 10:47:24;;;;;;;1.05;0.40;;;;;;;;;;4993476;28;20022;-80
2022/07/14 10:50:01;;;;;;;6.45;0.47;;;;;;;;;;4992990;28;20030;-83
2022/07/14 10:52:29;;;;;;;1.83;0.40;;;;;;;;;;4993064;28;20030;-76
2022/07/14 10:55:14;;;;;;;6.63;0.50;;;;;;;;;;4997542;28;20429;-77
2022/07/14 10:58:04;;;;;;;2.25;0.35;;;;;;;;;;4996410;28;20048;-75
2022/07/14 11:00:58;;;;;;;3.55;0.50;;;;;;;;;;4996866;28;20182;-76
2022/07/14 11:03:27;;;;;;;2.42;0.45;;;;;;;;;;4994140;28;20046;-78
2022/07/14 11:06:20;;;;;;;1.70;0.40;;;;;;;;;;4996387;28;20553;-81
2022/07/14 11:09:06;;;;;;;0.90;0.40;;;;;;;;;;4995929;28;20522;-78
2022/07/14 11:11:32;;;;;;;3.78;0.60;;;;;;;;;;4997482;28;20018;-75
2022/07/14 11:13:58;;;;;;;2.63;0.32;;;;;;;;;;4997545;28;20038;-76
2022/07/14 11:16:45;;;;;;;3.35;0.70;;;;;;;;;;4996812;28;20114;-82
2022/07/14 11:19:21;;;;;;;2.03;0.52;;;;;;;;;;4997263;28;20045;-79
2022/07/14 11:22:06;;;;;;;5.20;0.55;;;;;;;;;;4996373;28;20114;-87
2022/07/14 11:24:33;;;;;;;5.10;0.65;;;;;;;;;;4996439;28;20057;-76
2022/07/14 11:27:19;;;;;;;4.95;0.60;;;;;;;;;;4995738;28;20088;-79
2022/07/14 11:29:46;;;;;;;2.53;0.50;;;;;;;;;;4996478;28;20026;-76
2022/07/14 11:32:32;;;;;;;6.07;0.70;;;;;;;;;;4996049;28;20061;-80
2022/07/14 11:38:02;;;;;;;2.83;0.50;;;;;;;;;;4997629;28;20038;-77
2022/07/14 11:40:41;;;;;;;4.20;0.60;;;;;;;;;;4995736;28;20491;-78
2022/07/14 11:43:26;;;;;;;4.03;0.70;;;;;;;;;;4995754;28;20030;-77
2022/07/14 11:45:58;;;;;;;4.68;0.73;;;;;;;;;;4996239;28;20042;-76
2022/07/14 11:48:28;;;;;;;4.95;0.63;;;;;;;;;;4996630;28;20020;-80
2022/07/14 11:51:11;;;;;;;3.90;0.73;;;;;;;;;;4995323;28;20426;-76
2022/07/14 11:53:38;;;;;;;7.15;0.73;;;;;;;;;;4997212;28;20463;-77
2022/07/14 11:56:06;;;;;;;2.55;0.60;;;;;;;;;;4997176;28;20121;-77
2022/07/14 11:58:33;;;;;;;2.72;0.77;;;;;;;;;;4996155;28;20018;-78
2022/07/14 12:01:01;;;;;;;5.35;0.70;;;;;;;;;;4997257;28;20031;-78
2022/07/14 12:03:28;;;;;;;2.63;0.60;;;;;;;;;;4996041;28;20105;-89
2022/07/14 12:05:55;;;;;;;4.10;0.60;;;;;;;;;;4994876;28;20037;-88
2022/07/14 12:08:25;;;;;;;2.95;0.80;;;;;;;;;;4995412;28;20039;-77
2022/07/14 12:10:52;;;;;;;4.53;0.60;;;;;;;;;;4994987;28;20026;-76
2022/07/14 12:13:18;;;;;;;2.13;0.60;;;;;;;;;;4995270;28;20031;-77
2022/07/14 12:15:45;;;;;;;2.17;0.57;;;;;;;;;;4995675;28;20088;-75
2022/07/14 12:18:13;;;;;;;4.13;0.68;;;;;;;;;;4995314;28;20022;-80
2022/07/14 12:20:41;;;;;;;2.33;0.70;;;;;;;;;;4995039;28;20034;-76
2022/07/14 12:23:07;;;;;;;4.40;0.70;;;;;;;;;;4995040;28;20026;-77
2022/07/14 12:25:35;;;;;;;2.70;0.60;;;;;;;;;;4995216;28;20474;-83
2022/07/14 12:28:02;;;;;;;3.92;0.60;;;;;;;;;;4995919;28;20081;-82
2022/07/14 12:30:48;;;;;;;7.68;0.70;;;;;;;;;;4995471;28;20026;-79
2022/07/14 12:33:16;;;;;;;1.00;0.50;;;;;;;;;;4995752;28;20030;-82
2022/07/14 12:35:43;;;;;;;1.38;0.50;;;;;;;;;;4995039;28;20034;-82
2022/07/14 12:38:11;;;;;;;1.80;0.57;;;;;;;;;;4996729;28;20026;-77
2022/07/14 12:40:38;;;;;;;12.48;1.08;;;;;;;;;;4994443;28;20034;-82
2022/07/14 12:43:04;;;;;;;6.35;0.77;;;;;;;;;;4994504;28;20026;-76
2022/07/14 12:45:31;;;;;;;3.53;0.50;;;;;;;;;;4994393;28;20040;-76
2022/07/14 12:48:01;;;;;;;3.20;0.60;;;;;;;;;;4994623;28;20026;-76
2022/07/14 12:50:28;;;;;;;3.83;0.80;;;;;;;;;;4995027;28;20030;-86
2022/07/14 12:52:56;;;;;;;4.53;0.70;;;;;;;;;;4994223;28;20386;-77
2022/07/14 12:55:36;;;;;;;1.73;0.57;;;;;;;;;;4994404;28;20070;-77
2022/07/14 12:58:09;;;;;;;2.97;0.70;;;;;;;;;;4995496;28;20484;-79
2022/07/14 13:00:36;;;;;;;1.48;0.70;;;;;;;;;;4994942;28;20491;-76
2022/07/14 13:03:10;;;;;;;1.48;0.52;;;;;;;;;;4993971;28;20022;-76
2022/07/14 13:05:36;;;;;;;2.00;0.60;;;;;;;;;;4994247;28;20428;-75
2022/07/14 13:08:22;;;;;;;2.08;0.63;;;;;;;;;;4993946;28;20506;-78
2022/07/14 13:10:58;;;;;;;1.10;0.50;;;;;;;;;;4994017;28;20034;-79
2022/07/14 13:13:32;;;;;;;3.70;0.70;;;;;;;;;;4995329;28;20454;-79
2022/07/14 13:16:17;;;;;;;2.20;0.40;;;;;;;;;;4994177;28;20030;-78
2022/07/14 13:19:02;;;;;;;2.08;0.52;;;;;;;;;;4994337;28;20058;-85
2022/07/14 13:21:47;;;;;;;2.13;0.50;;;;;;;;;;4996034;28;20026;-81
2022/07/14 13:24:18;;;;;;;2.30;0.60;;;;;;;;;;4995222;28;20513;-76
2022/07/14 13:26:44;;;;;;;4.30;0.60;;;;;;;;;;5002078;28;20034;-77
2022/07/14 13:29:10;;;;;;;1.48;0.47;;;;;;;;;;4994831;28;20058;-78
2022/07/14 13:31:37;;;;;;;2.40;0.60;;;;;;;;;;4993827;28;20029;-77
2022/07/14 13:34:03;;;;;;;4.10;0.60;;;;;;;;;;4992512;28;20034;-76
2022/07/14 13:36:30;;;;;;;3.28;0.60;;;;;;;;;;4994262;28;20011;-78
2022/07/14 13:38:58;;;;;;;6.32;0.50;;;;;;;;;;4994508;28;20037;-76
2022/07/14 13:41:24;;;;;;;2.85;0.55;;;;;;;;;;4994436;28;20371;-77
2022/07/14 13:43:53;;;;;;;1.80;0.70;;;;;;;;;;4993653;28;20034;-78
2022/07/14 13:46:22;;;;;;;1.98;0.50;;;;;;;;;;4994434;28;20026;-82
2022/07/14 13:48:59;;;;;;;1.20;0.50;;;;;;;;;;4995846;28;20546;-76
2022/07/14 13:54:10;;;;;;;1.75;0.40;;;;;;;;;;4995077;28;20052;-75
2022/07/14 13:56:39;;;;;;;6.93;0.90;;;;;;;;;;4993476;28;20035;-83
2022/07/14 13:59:07;;;;;;;2.17;0.50;;;;;;;;;;4994456;28;20467;-79
2022/07/14 14:01:33;;;;;;;2.97;0.57;;;;;;;;;;4993137;28;20030;-76
2022/07/14 14:03:59;;;;;;;2.47;0.55;;;;;;;;;;4994927;28;20031;-77
2022/07/14 14:06:25;;;;;;;1.52;0.47;;;;;;;;;;4993596;28;20019;-75
2022/07/14 14:08:52;;;;;;;2.00;0.50;;;;;;;;;;4994138;28;20042;-80
2022/07/14 14:11:18;;;;;;;0.85;0.38;;;;;;;;;;4992752;28;20034;-78
2022/07/14 14:13:44;;;;;;;1.27;0.68;;;;;;;;;;4992947;28;20034;-77
2022/07/14 14:16:10;;;;;;;1.80;1.00;;;;;;;;;;4993294;28;20080;-76
2022/07/14 14:18:36;;;;;;;2.67;0.90;;;;;;;;;;4992877;28;20542;-77
2022/07/14 14:21:03;;;;;;;3.40;0.60;;;;;;;;;;4993127;28;20027;-75
2022/07/14 14:23:30;;;;;;;1.45;0.70;;;;;;;;;;4993480;28;20033;-85
2022/07/14 14:25:58;;;;;;;2.28;0.80;;;;;;;;;;4993512;28;20038;-82
2022/07/14 14:28:24;;;;;;;2.45;0.60;;;;;;;;;;4994045;28;20026;-78
2022/07/14 14:30:51;;;;;;;2.90;0.88;;;;;;;;;;4995304;28;20030;-79
2022/07/14 14:33:17;;;;;;;1.10;0.50;;;;;;;;;;4981904;28;20030;-89
2022/07/14 14:35:44;;;;;;;1.45;0.55;;;;;;;;;;4973961;28;20061;-77
2022/07/14 14:38:10;;;;;;;3.60;0.75;;;;;;;;;;4974475;28;20037;-80
2022/07/14 14:40:36;;;;;;;2.85;0.52;;;;;;;;;;4974660;28;20038;-81
2022/07/14 14:43:03;;;;;;;1.90;0.60;;;;;;;;;;4972942;28;20038;-78
2022/07/14 14:45:29;;;;;;;2.08;0.65;;;;;;;;;;4973311;28;20030;-78
2022/07/14 14:47:55;;;;;;;2.65;0.57;;;;;;;;;;4972311;28;20027;-78
2022/07/14 14:50:21;;;;;;;2.15;0.73;;;;;;;;;;4972292;28;20594;-78
2022/07/14 14:52:49;;;;;;;2.58;0.60;;;;;;;;;;4976197;28;20034;-81
2022/07/14 14:55:16;;;;;;;1.10;0.60;;;;;;;;;;5011584;28;20064;-78
2022/07/14 14:57:42;;;;;;;4.57;0.57;;;;;;;;;;4999544;28;20050;-79
2022/07/14 15:00:08;;;;;;;3.55;0.85;;;;;;;;;;4992324;28;20030;-79
2022/07/14 15:02:35;;;;;;;1.58;0.50;;;;;;;;;;4993293;28;20019;-78
2022/07/14 15:05:05;;;;;;;3.88;0.80;;;;;;;;;;4992311;28;20063;-77